sensor_id;sensor_type;location;lat;lon;timestamp;temperature;humidity
13521;DHT22;6832;51.186;3.236;2023-03-13T00:01:51;16.40;59.30
13521;DHT22;6832;51.186;3.236;2023-03-13T00:04:22;16.30;59.20
13521;DHT22;6832;51.186;3.236;2023-03-13T00:06:50;16.20;59.10
13521;DHT22;6832;51.186;3.236;2023-03-13T00:09:17;16.40;59.30
13521;DHT22;6832;51.186;3.236;2023-03-13T00:11:44;16.40;59.30
13521;DHT22;6832;51.186;3.236;2023-03-13T00:14:11;16.40;59.80
13521;DHT22;6832;51.186;3.236;2023-03-13T00:16:38;16.40;59.30
13521;DHT22;6832;51.186;3.236;2023-03-13T00:19:06;16.40;59.30
13521;DHT22;6832;51.186;3.236;2023-03-13T00:21:34;16.40;59.30
13521;DHT22;6832;51.186;3.236;2023-03-13T00:24:06;16.40;59.30
13521;DHT22;6832;51.186;3.236;2023-03-13T00:26:33;16.40;59.30
13521;DHT22;6832;51.186;3.236;2023-03-13T00:29:00;16.40;59.30
13521;DHT22;6832;51.186;3.236;2023-03-13T00:31:28;16.40;59.30
13521;DHT22;6832;51.186;3.236;2023-03-13T00:33:57;16.40;59.30
13521;DHT22;6832;51.186;3.236;2023-03-13T00:36:26;16.40;59.30
13521;DHT22;6832;51.186;3.236;2023-03-13T00:38:54;16.40;59.40
13521;DHT22;6832;51.186;3.236;2023-03-13T00:41:24;16.40;59.30
13521;DHT22;6832;51.186;3.236;2023-03-13T00:43:51;16.40;59.30
13521;DHT22;6832;51.186;3.236;2023-03-13T00:46:20;16.40;59.40
13521;DHT22;6832;51.186;3.236;2023-03-13T00:48:48;16.40;59.40
13521;DHT22;6832;51.186;3.236;2023-03-13T00:51:16;16.40;59.30
13521;DHT22;6832;51.186;3.236;2023-03-13T00:53:43;16.40;59.30
13521;DHT22;6832;51.186;3.236;2023-03-13T00:56:13;16.40;59.40
13521;DHT22;6832;51.186;3.236;2023-03-13T00:58:41;16.50;59.50
13521;DHT22;6832;51.186;3.236;2023-03-13T01:01:11;16.40;59.40
13521;DHT22;6832;51.186;3.236;2023-03-13T01:03:39;16.40;59.40
13521;DHT22;6832;51.186;3.236;2023-03-13T01:06:08;16.50;59.50
13521;DHT22;6832;51.186;3.236;2023-03-13T01:08:35;16.50;59.50
13521;DHT22;6832;51.186;3.236;2023-03-13T01:11:03;16.50;59.50
13521;DHT22;6832;51.186;3.236;2023-03-13T01:13:32;16.50;59.50
13521;DHT22;6832;51.186;3.236;2023-03-13T01:16:01;16.40;59.40
13521;DHT22;6832;51.186;3.236;2023-03-13T01:18:28;16.40;59.40
13521;DHT22;6832;51.186;3.236;2023-03-13T01:20:55;16.50;59.50
13521;DHT22;6832;51.186;3.236;2023-03-13T01:23:22;16.50;59.60
13521;DHT22;6832;51.186;3.236;2023-03-13T01:25:49;16.50;59.60
13521;DHT22;6832;51.186;3.236;2023-03-13T01:28:16;16.50;59.60
13521;DHT22;6832;51.186;3.236;2023-03-13T01:30:44;16.50;59.60
13521;DHT22;6832;51.186;3.236;2023-03-13T01:33:11;16.50;59.60
13521;DHT22;6832;51.186;3.236;2023-03-13T01:35:38;16.50;59.70
13521;DHT22;6832;51.186;3.236;2023-03-13T01:38:05;16.50;59.60
13521;DHT22;6832;51.186;3.236;2023-03-13T01:40:38;16.50;60.20
13521;DHT22;6832;51.186;3.236;2023-03-13T01:43:17;16.50;59.70
13521;DHT22;6832;51.186;3.236;2023-03-13T01:46:03;16.50;59.80
13521;DHT22;6832;51.186;3.236;2023-03-13T01:48:41;16.50;59.80
13521;DHT22;6832;51.186;3.236;2023-03-13T01:51:12;16.50;59.70
13521;DHT22;6832;51.186;3.236;2023-03-13T01:53:42;16.50;59.60
13521;DHT22;6832;51.186;3.236;2023-03-13T01:56:12;16.50;59.70
13521;DHT22;6832;51.186;3.236;2023-03-13T01:58:40;16.50;59.70
13521;DHT22;6832;51.186;3.236;2023-03-13T02:01:10;16.50;59.70
13521;DHT22;6832;51.186;3.236;2023-03-13T02:03:37;16.50;59.70
13521;DHT22;6832;51.186;3.236;2023-03-13T02:06:05;16.50;59.70
13521;DHT22;6832;51.186;3.236;2023-03-13T02:08:36;16.50;59.80
13521;DHT22;6832;51.186;3.236;2023-03-13T02:11:10;16.60;59.80
13521;DHT22;6832;51.186;3.236;2023-03-13T02:13:38;16.50;59.80
13521;DHT22;6832;51.186;3.236;2023-03-13T02:16:05;16.70;59.90
13521;DHT22;6832;51.186;3.236;2023-03-13T02:18:35;16.60;60.50
13521;DHT22;6832;51.186;3.236;2023-03-13T02:21:09;16.60;59.80
13521;DHT22;6832;51.186;3.236;2023-03-13T02:23:41;16.60;59.90
13521;DHT22;6832;51.186;3.236;2023-03-13T02:26:12;16.70;59.90
13521;DHT22;6832;51.186;3.236;2023-03-13T02:28:39;16.60;59.80
13521;DHT22;6832;51.186;3.236;2023-03-13T02:31:07;16.60;59.80
13521;DHT22;6832;51.186;3.236;2023-03-13T02:33:37;16.60;59.80
13521;DHT22;6832;51.186;3.236;2023-03-13T02:36:07;16.60;59.80
13521;DHT22;6832;51.186;3.236;2023-03-13T02:38:49;16.60;59.80
13521;DHT22;6832;51.186;3.236;2023-03-13T02:41:19;16.60;59.90
13521;DHT22;6832;51.186;3.236;2023-03-13T02:43:47;16.60;59.90
13521;DHT22;6832;51.186;3.236;2023-03-13T02:46:16;16.60;59.80
13521;DHT22;6832;51.186;3.236;2023-03-13T02:48:44;16.60;59.80
13521;DHT22;6832;51.186;3.236;2023-03-13T02:51:17;16.60;59.90
13521;DHT22;6832;51.186;3.236;2023-03-13T02:53:46;16.60;59.80
13521;DHT22;6832;51.186;3.236;2023-03-13T02:56:18;16.70;59.90
13521;DHT22;6832;51.186;3.236;2023-03-13T02:58:48;16.70;59.90
13521;DHT22;6832;51.186;3.236;2023-03-13T03:01:15;16.60;59.80
13521;DHT22;6832;51.186;3.236;2023-03-13T03:03:42;16.70;59.90
13521;DHT22;6832;51.186;3.236;2023-03-13T03:06:09;16.70;59.90
13521;DHT22;6832;51.186;3.236;2023-03-13T03:08:36;16.70;60.00
13521;DHT22;6832;51.186;3.236;2023-03-13T03:11:09;16.60;59.80
13521;DHT22;6832;51.186;3.236;2023-03-13T03:13:37;16.70;59.90
13521;DHT22;6832;51.186;3.236;2023-03-13T03:16:08;16.70;59.90
13521;DHT22;6832;51.186;3.236;2023-03-13T03:18:36;16.70;60.00
13521;DHT22;6832;51.186;3.236;2023-03-13T03:21:04;16.70;59.90
13521;DHT22;6832;51.186;3.236;2023-03-13T03:23:31;16.70;60.00
13521;DHT22;6832;51.186;3.236;2023-03-13T03:25:59;16.70;59.90
13521;DHT22;6832;51.186;3.236;2023-03-13T03:28:26;16.70;59.90
13521;DHT22;6832;51.186;3.236;2023-03-13T03:30:54;16.70;60.00
13521;DHT22;6832;51.186;3.236;2023-03-13T03:33:22;16.70;60.00
13521;DHT22;6832;51.186;3.236;2023-03-13T03:35:49;16.70;60.00
13521;DHT22;6832;51.186;3.236;2023-03-13T03:38:16;16.70;60.00
13521;DHT22;6832;51.186;3.236;2023-03-13T03:40:43;16.70;60.00
13521;DHT22;6832;51.186;3.236;2023-03-13T03:43:10;16.80;60.20
13521;DHT22;6832;51.186;3.236;2023-03-13T03:45:37;16.80;60.10
13521;DHT22;6832;51.186;3.236;2023-03-13T03:48:05;16.70;60.00
13521;DHT22;6832;51.186;3.236;2023-03-13T03:50:32;16.80;60.20
13521;DHT22;6832;51.186;3.236;2023-03-13T03:52:59;16.80;60.20
13521;DHT22;6832;51.186;3.236;2023-03-13T03:55:26;16.80;60.20
13521;DHT22;6832;51.186;3.236;2023-03-13T03:57:53;16.80;60.20
13521;DHT22;6832;51.186;3.236;2023-03-13T04:00:20;16.80;60.20
13521;DHT22;6832;51.186;3.236;2023-03-13T04:02:50;16.80;60.20
13521;DHT22;6832;51.186;3.236;2023-03-13T04:05:22;16.80;60.30
13521;DHT22;6832;51.186;3.236;2023-03-13T04:07:49;16.80;60.20
13521;DHT22;6832;51.186;3.236;2023-03-13T04:10:16;16.80;60.20
13521;DHT22;6832;51.186;3.236;2023-03-13T04:12:42;16.80;60.30
13521;DHT22;6832;51.186;3.236;2023-03-13T04:15:10;16.80;60.20
13521;DHT22;6832;51.186;3.236;2023-03-13T04:17:37;16.80;60.30
13521;DHT22;6832;51.186;3.236;2023-03-13T04:20:05;16.80;60.20
13521;DHT22;6832;51.186;3.236;2023-03-13T04:22:34;16.80;60.30
13521;DHT22;6832;51.186;3.236;2023-03-13T04:25:01;16.80;60.30
13521;DHT22;6832;51.186;3.236;2023-03-13T04:27:28;16.90;60.40
13521;DHT22;6832;51.186;3.236;2023-03-13T04:29:54;16.80;60.30
13521;DHT22;6832;51.186;3.236;2023-03-13T04:32:21;16.80;60.30
13521;DHT22;6832;51.186;3.236;2023-03-13T04:34:48;16.80;60.20
13521;DHT22;6832;51.186;3.236;2023-03-13T04:37:15;16.90;60.40
13521;DHT22;6832;51.186;3.236;2023-03-13T04:39:43;16.90;60.30
13521;DHT22;6832;51.186;3.236;2023-03-13T04:42:12;16.90;60.40
13521;DHT22;6832;51.186;3.236;2023-03-13T04:44:39;16.90;60.40
13521;DHT22;6832;51.186;3.236;2023-03-13T04:47:05;16.90;60.40
13521;DHT22;6832;51.186;3.236;2023-03-13T04:49:32;16.90;60.40
13521;DHT22;6832;51.186;3.236;2023-03-13T04:51:59;16.90;60.40
13521;DHT22;6832;51.186;3.236;2023-03-13T04:54:26;16.90;60.40
13521;DHT22;6832;51.186;3.236;2023-03-13T04:56:54;16.90;60.50
13521;DHT22;6832;51.186;3.236;2023-03-13T04:59:21;16.90;60.40
13521;DHT22;6832;51.186;3.236;2023-03-13T05:01:48;16.90;60.40
13521;DHT22;6832;51.186;3.236;2023-03-13T05:04:15;16.90;60.40
13521;DHT22;6832;51.186;3.236;2023-03-13T05:06:42;16.90;60.50
13521;DHT22;6832;51.186;3.236;2023-03-13T05:09:09;16.90;60.50
13521;DHT22;6832;51.186;3.236;2023-03-13T05:11:36;17.00;60.60
13521;DHT22;6832;51.186;3.236;2023-03-13T05:14:06;17.00;60.50
13521;DHT22;6832;51.186;3.236;2023-03-13T05:16:34;17.00;60.50
13521;DHT22;6832;51.186;3.236;2023-03-13T05:19:01;17.00;60.50
13521;DHT22;6832;51.186;3.236;2023-03-13T05:21:27;17.10;61.40
13521;DHT22;6832;51.186;3.236;2023-03-13T05:23:54;17.00;60.60
13521;DHT22;6832;51.186;3.236;2023-03-13T05:26:22;17.00;60.60
13521;DHT22;6832;51.186;3.236;2023-03-13T05:28:49;17.00;60.60
13521;DHT22;6832;51.186;3.236;2023-03-13T05:31:17;17.00;60.60
13521;DHT22;6832;51.186;3.236;2023-03-13T05:33:44;17.00;60.60
13521;DHT22;6832;51.186;3.236;2023-03-13T05:36:11;17.00;61.40
13521;DHT22;6832;51.186;3.236;2023-03-13T05:38:37;17.00;60.60
13521;DHT22;6832;51.186;3.236;2023-03-13T05:41:04;17.10;60.70
13521;DHT22;6832;51.186;3.236;2023-03-13T05:43:32;17.10;60.70
13521;DHT22;6832;51.186;3.236;2023-03-13T05:45:59;17.00;60.70
13521;DHT22;6832;51.186;3.236;2023-03-13T05:48:27;17.00;60.60
13521;DHT22;6832;51.186;3.236;2023-03-13T05:50:54;17.00;60.60
13521;DHT22;6832;51.186;3.236;2023-03-13T05:53:21;17.10;60.80
13521;DHT22;6832;51.186;3.236;2023-03-13T05:55:48;17.00;60.70
13521;DHT22;6832;51.186;3.236;2023-03-13T05:58:15;17.00;60.70
13521;DHT22;6832;51.186;3.236;2023-03-13T06:00:41;17.10;60.80
13521;DHT22;6832;51.186;3.236;2023-03-13T06:03:09;17.10;60.70
13521;DHT22;6832;51.186;3.236;2023-03-13T06:05:37;17.10;60.80
13521;DHT22;6832;51.186;3.236;2023-03-13T06:08:04;17.10;60.80
13521;DHT22;6832;51.186;3.236;2023-03-13T06:10:32;17.10;60.80
13521;DHT22;6832;51.186;3.236;2023-03-13T06:12:58;17.10;60.80
13521;DHT22;6832;51.186;3.236;2023-03-13T06:15:27;17.10;60.80
13521;DHT22;6832;51.186;3.236;2023-03-13T06:17:53;17.10;60.80
13521;DHT22;6832;51.186;3.236;2023-03-13T06:20:20;17.10;60.80
13521;DHT22;6832;51.186;3.236;2023-03-13T06:22:49;17.10;60.90
13521;DHT22;6832;51.186;3.236;2023-03-13T06:25:16;17.10;60.80
13521;DHT22;6832;51.186;3.236;2023-03-13T06:27:43;17.10;60.90
13521;DHT22;6832;51.186;3.236;2023-03-13T06:30:11;17.10;60.90
13521;DHT22;6832;51.186;3.236;2023-03-13T06:32:38;17.10;60.90
13521;DHT22;6832;51.186;3.236;2023-03-13T06:35:05;17.10;60.90
13521;DHT22;6832;51.186;3.236;2023-03-13T06:37:32;17.10;60.90
13521;DHT22;6832;51.186;3.236;2023-03-13T06:40:01;17.10;60.90
13521;DHT22;6832;51.186;3.236;2023-03-13T06:42:32;17.10;60.90
13521;DHT22;6832;51.186;3.236;2023-03-13T06:44:59;17.20;61.00
13521;DHT22;6832;51.186;3.236;2023-03-13T06:47:29;17.20;61.00
13521;DHT22;6832;51.186;3.236;2023-03-13T06:49:56;17.10;61.00
13521;DHT22;6832;51.186;3.236;2023-03-13T06:52:23;17.10;60.90
13521;DHT22;6832;51.186;3.236;2023-03-13T06:54:50;17.20;61.10
13521;DHT22;6832;51.186;3.236;2023-03-13T06:57:18;17.20;61.10
13521;DHT22;6832;51.186;3.236;2023-03-13T06:59:45;17.20;61.10
13521;DHT22;6832;51.186;3.236;2023-03-13T07:02:12;17.20;61.10
13521;DHT22;6832;51.186;3.236;2023-03-13T07:04:39;17.20;61.10
13521;DHT22;6832;51.186;3.236;2023-03-13T07:07:06;17.20;61.10
13521;DHT22;6832;51.186;3.236;2023-03-13T07:09:33;17.20;61.10
13521;DHT22;6832;51.186;3.236;2023-03-13T07:12:00;17.20;61.10
13521;DHT22;6832;51.186;3.236;2023-03-13T07:14:35;17.20;61.10
13521;DHT22;6832;51.186;3.236;2023-03-13T07:17:02;17.20;61.20
13521;DHT22;6832;51.186;3.236;2023-03-13T07:19:29;17.20;61.10
13521;DHT22;6832;51.186;3.236;2023-03-13T07:21:56;17.20;61.20
13521;DHT22;6832;51.186;3.236;2023-03-13T07:24:23;17.20;61.20
13521;DHT22;6832;51.186;3.236;2023-03-13T07:26:50;17.20;61.20
13521;DHT22;6832;51.186;3.236;2023-03-13T07:29:16;17.20;61.20
13521;DHT22;6832;51.186;3.236;2023-03-13T07:31:45;17.20;61.20
13521;DHT22;6832;51.186;3.236;2023-03-13T07:34:11;17.20;61.20
13521;DHT22;6832;51.186;3.236;2023-03-13T07:36:38;17.20;61.20
13521;DHT22;6832;51.186;3.236;2023-03-13T07:39:06;17.20;61.30
13521;DHT22;6832;51.186;3.236;2023-03-13T07:41:33;17.20;61.30
13521;DHT22;6832;51.186;3.236;2023-03-13T07:44:00;17.30;61.40
13521;DHT22;6832;51.186;3.236;2023-03-13T07:46:26;17.20;61.20
13521;DHT22;6832;51.186;3.236;2023-03-13T07:48:55;17.20;61.30
13521;DHT22;6832;51.186;3.236;2023-03-13T07:51:23;17.20;61.30
13521;DHT22;6832;51.186;3.236;2023-03-13T07:53:50;17.30;61.40
13521;DHT22;6832;51.186;3.236;2023-03-13T07:56:23;17.30;61.50
13521;DHT22;6832;51.186;3.236;2023-03-13T07:58:50;17.30;61.50
13521;DHT22;6832;51.186;3.236;2023-03-13T08:01:18;17.30;61.40
13521;DHT22;6832;51.186;3.236;2023-03-13T08:03:46;17.30;61.50
13521;DHT22;6832;51.186;3.236;2023-03-13T08:06:17;17.30;61.40
13521;DHT22;6832;51.186;3.236;2023-03-13T08:08:45;17.30;61.50
13521;DHT22;6832;51.186;3.236;2023-03-13T08:11:13;17.30;61.40
13521;DHT22;6832;51.186;3.236;2023-03-13T08:13:41;17.30;61.40
13521;DHT22;6832;51.186;3.236;2023-03-13T08:16:09;17.30;61.40
13521;DHT22;6832;51.186;3.236;2023-03-13T08:18:37;17.30;61.50
13521;DHT22;6832;51.186;3.236;2023-03-13T08:21:06;17.30;61.40
13521;DHT22;6832;51.186;3.236;2023-03-13T08:23:35;17.30;61.40
13521;DHT22;6832;51.186;3.236;2023-03-13T08:26:04;17.30;61.50
13521;DHT22;6832;51.186;3.236;2023-03-13T08:28:31;17.30;61.50
13521;DHT22;6832;51.186;3.236;2023-03-13T08:30:59;17.30;61.40
13521;DHT22;6832;51.186;3.236;2023-03-13T08:33:31;17.30;61.50
13521;DHT22;6832;51.186;3.236;2023-03-13T08:35:58;17.40;61.60
13521;DHT22;6832;51.186;3.236;2023-03-13T08:38:25;17.40;61.60
13521;DHT22;6832;51.186;3.236;2023-03-13T08:40:56;17.40;61.60
13521;DHT22;6832;51.186;3.236;2023-03-13T08:43:23;17.40;61.60
13521;DHT22;6832;51.186;3.236;2023-03-13T08:45:53;17.40;61.60
13521;DHT22;6832;51.186;3.236;2023-03-13T08:48:20;17.40;61.60
13521;DHT22;6832;51.186;3.236;2023-03-13T08:51:01;17.40;61.60
13521;DHT22;6832;51.186;3.236;2023-03-13T08:53:28;17.40;61.70
13521;DHT22;6832;51.186;3.236;2023-03-13T08:55:56;17.40;61.60
13521;DHT22;6832;51.186;3.236;2023-03-13T08:58:24;17.40;61.60
13521;DHT22;6832;51.186;3.236;2023-03-13T09:00:50;17.40;61.60
13521;DHT22;6832;51.186;3.236;2023-03-13T09:03:17;17.40;61.60
13521;DHT22;6832;51.186;3.236;2023-03-13T09:05:44;17.40;61.60
13521;DHT22;6832;51.186;3.236;2023-03-13T09:08:13;17.40;61.60
13521;DHT22;6832;51.186;3.236;2023-03-13T09:10:40;17.40;61.60
13521;DHT22;6832;51.186;3.236;2023-03-13T09:13:08;17.40;61.60
13521;DHT22;6832;51.186;3.236;2023-03-13T09:15:35;17.40;61.70
13521;DHT22;6832;51.186;3.236;2023-03-13T09:18:02;17.40;61.60
13521;DHT22;6832;51.186;3.236;2023-03-13T09:20:30;17.50;61.70
13521;DHT22;6832;51.186;3.236;2023-03-13T09:22:57;17.50;61.70
13521;DHT22;6832;51.186;3.236;2023-03-13T09:25:24;17.50;61.70
13521;DHT22;6832;51.186;3.236;2023-03-13T09:27:51;17.50;61.70
13521;DHT22;6832;51.186;3.236;2023-03-13T09:30:20;17.50;61.70
13521;DHT22;6832;51.186;3.236;2023-03-13T09:32:46;17.50;62.60
13521;DHT22;6832;51.186;3.236;2023-03-13T09:35:13;17.50;61.80
13521;DHT22;6832;51.186;3.236;2023-03-13T09:37:40;17.50;61.80
13521;DHT22;6832;51.186;3.236;2023-03-13T09:40:12;17.50;61.80
13521;DHT22;6832;51.186;3.236;2023-03-13T09:42:45;17.50;61.80
13521;DHT22;6832;51.186;3.236;2023-03-13T09:45:17;17.60;61.90
13521;DHT22;6832;51.186;3.236;2023-03-13T09:47:48;17.60;61.80
13521;DHT22;6832;51.186;3.236;2023-03-13T09:50:20;17.60;61.90
13521;DHT22;6832;51.186;3.236;2023-03-13T09:52:52;17.60;61.90
13521;DHT22;6832;51.186;3.236;2023-03-13T09:55:22;17.60;61.90
13521;DHT22;6832;51.186;3.236;2023-03-13T09:57:53;17.60;62.00
13521;DHT22;6832;51.186;3.236;2023-03-13T10:00:23;17.60;62.00
13521;DHT22;6832;51.186;3.236;2023-03-13T10:02:55;17.60;62.00
13521;DHT22;6832;51.186;3.236;2023-03-13T10:05:25;17.60;62.00
13521;DHT22;6832;51.186;3.236;2023-03-13T10:07:56;17.70;62.10
13521;DHT22;6832;51.186;3.236;2023-03-13T10:10:32;17.70;62.10
13521;DHT22;6832;51.186;3.236;2023-03-13T10:13:13;17.70;62.10
13521;DHT22;6832;51.186;3.236;2023-03-13T10:15:45;17.70;62.10
13521;DHT22;6832;51.186;3.236;2023-03-13T10:18:18;17.70;62.10
13521;DHT22;6832;51.186;3.236;2023-03-13T10:20:48;17.70;62.20
13521;DHT22;6832;51.186;3.236;2023-03-13T10:23:20;17.70;62.10
13521;DHT22;6832;51.186;3.236;2023-03-13T10:25:47;17.80;62.20
13521;DHT22;6832;51.186;3.236;2023-03-13T10:28:16;17.80;62.20
13521;DHT22;6832;51.186;3.236;2023-03-13T10:30:47;17.80;62.20
13521;DHT22;6832;51.186;3.236;2023-03-13T10:33:21;17.80;62.20
13521;DHT22;6832;51.186;3.236;2023-03-13T10:36:00;17.90;63.20
13521;DHT22;6832;51.186;3.236;2023-03-13T10:38:32;17.90;62.40
13521;DHT22;6832;51.186;3.236;2023-03-13T10:41:00;17.90;62.40
13521;DHT22;6832;51.186;3.236;2023-03-13T10:43:28;18.00;62.40
13521;DHT22;6832;51.186;3.236;2023-03-13T10:45:55;17.90;62.30
13521;DHT22;6832;51.186;3.236;2023-03-13T10:48:25;17.90;62.40
13521;DHT22;6832;51.186;3.236;2023-03-13T10:50:54;17.90;63.10
13521;DHT22;6832;51.186;3.236;2023-03-13T10:53:32;17.90;62.90
13521;DHT22;6832;51.186;3.236;2023-03-13T10:56:03;17.90;62.80
13521;DHT22;6832;51.186;3.236;2023-03-13T10:58:34;18.00;62.70
13521;DHT22;6832;51.186;3.236;2023-03-13T11:01:19;18.00;62.50
13521;DHT22;6832;51.186;3.236;2023-03-13T11:03:49;18.10;62.70
13521;DHT22;6832;51.186;3.236;2023-03-13T11:06:25;18.10;62.50
13521;DHT22;6832;51.186;3.236;2023-03-13T11:09:11;18.10;62.60
13521;DHT22;6832;51.186;3.236;2023-03-13T11:11:47;18.10;62.60
13521;DHT22;6832;51.186;3.236;2023-03-13T11:14:17;18.20;62.60
13521;DHT22;6832;51.186;3.236;2023-03-13T11:16:49;18.20;62.50
13521;DHT22;6832;51.186;3.236;2023-03-13T11:19:29;18.20;62.60
13521;DHT22;6832;51.186;3.236;2023-03-13T11:22:06;18.20;62.70
13521;DHT22;6832;51.186;3.236;2023-03-13T11:24:41;18.20;62.60
13521;DHT22;6832;51.186;3.236;2023-03-13T11:27:16;18.20;62.60
13521;DHT22;6832;51.186;3.236;2023-03-13T11:29:54;18.30;62.70
13521;DHT22;6832;51.186;3.236;2023-03-13T11:32:30;18.20;62.50
13521;DHT22;6832;51.186;3.236;2023-03-13T11:35:03;18.30;62.70
13521;DHT22;6832;51.186;3.236;2023-03-13T11:37:35;18.30;62.60
13521;DHT22;6832;51.186;3.236;2023-03-13T11:40:14;18.30;62.60
13521;DHT22;6832;51.186;3.236;2023-03-13T11:42:58;18.30;62.70
13521;DHT22;6832;51.186;3.236;2023-03-13T11:45:48;18.30;62.70
13521;DHT22;6832;51.186;3.236;2023-03-13T11:48:24;18.40;62.80
13521;DHT22;6832;51.186;3.236;2023-03-13T11:50:59;18.40;62.70
13521;DHT22;6832;51.186;3.236;2023-03-13T11:53:38;18.40;62.70
13521;DHT22;6832;51.186;3.236;2023-03-13T11:56:14;18.40;62.70
13521;DHT22;6832;51.186;3.236;2023-03-13T11:59:01;18.40;62.70
13521;DHT22;6832;51.186;3.236;2023-03-13T12:01:33;18.40;62.70
13521;DHT22;6832;51.186;3.236;2023-03-13T12:04:06;18.40;62.60
13521;DHT22;6832;51.186;3.236;2023-03-13T12:06:41;18.50;62.80
13521;DHT22;6832;51.186;3.236;2023-03-13T12:09:13;18.50;62.80
13521;DHT22;6832;51.186;3.236;2023-03-13T12:11:44;18.50;62.70
13521;DHT22;6832;51.186;3.236;2023-03-13T12:14:15;18.50;62.70
13521;DHT22;6832;51.186;3.236;2023-03-13T12:16:46;18.50;62.80
13521;DHT22;6832;51.186;3.236;2023-03-13T12:19:19;18.50;62.70
13521;DHT22;6832;51.186;3.236;2023-03-13T12:21:51;18.50;62.70
13521;DHT22;6832;51.186;3.236;2023-03-13T12:24:25;18.60;62.80
13521;DHT22;6832;51.186;3.236;2023-03-13T12:26:56;18.60;62.80
13521;DHT22;6832;51.186;3.236;2023-03-13T12:29:33;18.60;62.80
13521;DHT22;6832;51.186;3.236;2023-03-13T12:32:09;18.60;62.80
13521;DHT22;6832;51.186;3.236;2023-03-13T12:34:50;18.60;62.80
13521;DHT22;6832;51.186;3.236;2023-03-13T12:37:25;18.60;62.80
13521;DHT22;6832;51.186;3.236;2023-03-13T12:39:57;18.60;62.80
13521;DHT22;6832;51.186;3.236;2023-03-13T12:42:40;18.60;62.80
13521;DHT22;6832;51.186;3.236;2023-03-13T12:45:14;18.70;62.90
13521;DHT22;6832;51.186;3.236;2023-03-13T12:48:05;18.70;62.90
13521;DHT22;6832;51.186;3.236;2023-03-13T12:50:39;18.70;62.90
13521;DHT22;6832;51.186;3.236;2023-03-13T12:53:25;18.80;63.00
13521;DHT22;6832;51.186;3.236;2023-03-13T12:56:21;18.80;63.00
13521;DHT22;6832;51.186;3.236;2023-03-13T12:58:51;18.80;63.00
13521;DHT22;6832;51.186;3.236;2023-03-13T13:01:28;18.80;62.90
13521;DHT22;6832;51.186;3.236;2023-03-13T13:03:58;18.80;63.00
13521;DHT22;6832;51.186;3.236;2023-03-13T13:06:28;18.90;63.00
13521;DHT22;6832;51.186;3.236;2023-03-13T13:09:19;18.90;63.10
13521;DHT22;6832;51.186;3.236;2023-03-13T13:11:48;18.90;63.80
13521;DHT22;6832;51.186;3.236;2023-03-13T13:17:42;18.90;62.90
13521;DHT22;6832;51.186;3.236;2023-03-13T13:20:36;18.90;62.90
13521;DHT22;6832;51.186;3.236;2023-03-13T13:23:34;19.00;62.90
13521;DHT22;6832;51.186;3.236;2023-03-13T13:32:39;19.00;62.80
13521;DHT22;6832;51.186;3.236;2023-03-13T13:35:28;19.10;62.90
13521;DHT22;6832;51.186;3.236;2023-03-13T13:38:26;19.00;62.80
13521;DHT22;6832;51.186;3.236;2023-03-13T13:41:00;19.00;62.90
13521;DHT22;6832;51.186;3.236;2023-03-13T13:43:30;19.00;62.70
13521;DHT22;6832;51.186;3.236;2023-03-13T13:46:00;19.10;62.90
13521;DHT22;6832;51.186;3.236;2023-03-13T13:48:31;19.00;62.80
13521;DHT22;6832;51.186;3.236;2023-03-13T13:51:24;19.10;62.90
13521;DHT22;6832;51.186;3.236;2023-03-13T13:53:55;19.10;63.00
13521;DHT22;6832;51.186;3.236;2023-03-13T13:56:33;19.10;62.90
13521;DHT22;6832;51.186;3.236;2023-03-13T13:59:13;19.10;62.90
13521;DHT22;6832;51.186;3.236;2023-03-13T14:01:42;19.20;63.00
13521;DHT22;6832;51.186;3.236;2023-03-13T14:04:15;19.10;62.90
13521;DHT22;6832;51.186;3.236;2023-03-13T14:06:46;19.20;63.00
13521;DHT22;6832;51.186;3.236;2023-03-13T14:09:22;19.10;62.90
13521;DHT22;6832;51.186;3.236;2023-03-13T14:11:55;19.20;63.00
13521;DHT22;6832;51.186;3.236;2023-03-13T14:14:22;19.20;62.90
13521;DHT22;6832;51.186;3.236;2023-03-13T14:16:50;19.20;63.00
13521;DHT22;6832;51.186;3.236;2023-03-13T14:19:24;19.20;63.00
13521;DHT22;6832;51.186;3.236;2023-03-13T14:21:58;19.20;63.00
13521;DHT22;6832;51.186;3.236;2023-03-13T14:24:25;19.20;63.00
13521;DHT22;6832;51.186;3.236;2023-03-13T14:26:52;19.20;62.90
13521;DHT22;6832;51.186;3.236;2023-03-13T14:29:19;19.20;62.90
13521;DHT22;6832;51.186;3.236;2023-03-13T14:31:51;19.30;63.10
13521;DHT22;6832;51.186;3.236;2023-03-13T14:34:19;19.30;63.10
13521;DHT22;6832;51.186;3.236;2023-03-13T14:36:49;19.30;63.10
13521;DHT22;6832;51.186;3.236;2023-03-13T14:39:18;19.30;63.00
13521;DHT22;6832;51.186;3.236;2023-03-13T14:41:47;19.30;63.00
13521;DHT22;6832;51.186;3.236;2023-03-13T14:44:20;19.30;63.10
13521;DHT22;6832;51.186;3.236;2023-03-13T14:46:47;19.30;63.00
13521;DHT22;6832;51.186;3.236;2023-03-13T14:49:17;19.30;63.00
13521;DHT22;6832;51.186;3.236;2023-03-13T14:51:45;19.30;63.00
13521;DHT22;6832;51.186;3.236;2023-03-13T14:54:29;19.40;63.10
13521;DHT22;6832;51.186;3.236;2023-03-13T14:57:10;19.40;63.10
13521;DHT22;6832;51.186;3.236;2023-03-13T14:59:39;19.40;63.10
13521;DHT22;6832;51.186;3.236;2023-03-13T15:02:18;19.50;63.20
13521;DHT22;6832;51.186;3.236;2023-03-13T15:04:50;19.40;63.10
13521;DHT22;6832;51.186;3.236;2023-03-13T15:07:19;19.50;63.20
13521;DHT22;6832;51.186;3.236;2023-03-13T15:09:48;19.40;63.10
13521;DHT22;6832;51.186;3.236;2023-03-13T15:12:17;19.40;63.10
13521;DHT22;6832;51.186;3.236;2023-03-13T15:14:46;19.50;63.20
13521;DHT22;6832;51.186;3.236;2023-03-13T15:17:16;19.40;63.10
13521;DHT22;6832;51.186;3.236;2023-03-13T15:19:47;19.40;63.10
13521;DHT22;6832;51.186;3.236;2023-03-13T15:22:16;19.40;63.10
13521;DHT22;6832;51.186;3.236;2023-03-13T15:24:43;19.50;63.20
13521;DHT22;6832;51.186;3.236;2023-03-13T15:27:19;19.50;63.20
13521;DHT22;6832;51.186;3.236;2023-03-13T15:29:46;19.50;63.20
13521;DHT22;6832;51.186;3.236;2023-03-13T15:32:21;19.50;63.10
13521;DHT22;6832;51.186;3.236;2023-03-13T15:34:48;19.50;63.20
13521;DHT22;6832;51.186;3.236;2023-03-13T15:37:15;19.50;63.10
13521;DHT22;6832;51.186;3.236;2023-03-13T15:39:42;19.50;63.10
13521;DHT22;6832;51.186;3.236;2023-03-13T15:42:09;19.50;63.10
13521;DHT22;6832;51.186;3.236;2023-03-13T15:44:37;19.60;63.20
13521;DHT22;6832;51.186;3.236;2023-03-13T15:47:04;19.60;63.20
13521;DHT22;6832;51.186;3.236;2023-03-13T15:49:32;19.50;63.10
13521;DHT22;6832;51.186;3.236;2023-03-13T15:51:59;19.60;63.20
13521;DHT22;6832;51.186;3.236;2023-03-13T15:54:26;19.60;63.20
13521;DHT22;6832;51.186;3.236;2023-03-13T15:56:53;19.60;63.20
13521;DHT22;6832;51.186;3.236;2023-03-13T15:59:20;19.60;63.20
13521;DHT22;6832;51.186;3.236;2023-03-13T16:01:51;19.60;63.20
13521;DHT22;6832;51.186;3.236;2023-03-13T16:04:18;19.60;63.20
13521;DHT22;6832;51.186;3.236;2023-03-13T16:06:45;19.60;63.20
13521;DHT22;6832;51.186;3.236;2023-03-13T16:09:12;19.60;63.20
13521;DHT22;6832;51.186;3.236;2023-03-13T16:11:42;19.70;63.30
13521;DHT22;6832;51.186;3.236;2023-03-13T16:14:10;19.60;63.20